createdAt,value
2018-02-20T00:00:10.374Z,29.33
2018-02-20T00:02:40.237Z,28.87
2018-02-20T00:05:09.348Z,28.07
2018-02-20T00:07:38.453Z,25.17
2018-02-20T00:10:07.573Z,27.03
2018-02-20T00:12:38.247Z,27.83
2018-02-20T00:15:07.371Z,27.20
2018-02-20T00:17:36.476Z,26.90
2018-02-20T00:20:05.609Z,28.17
2018-02-20T00:22:34.706Z,27.40
2018-02-20T00:25:04.579Z,29.07
2018-02-20T00:27:33.675Z,28.00
2018-02-20T00:30:02.810Z,26.80
2018-02-20T00:32:31.907Z,28.43
2018-02-20T00:35:01.030Z,27.80
2018-02-20T00:37:30.133Z,28.07
2018-02-20T00:39:59.225Z,28.03
2018-02-20T00:42:28.398Z,29.00
2018-02-20T00:44:58.262Z,26.47
2018-02-20T00:47:27.393Z,26.63
2018-02-20T00:49:57.271Z,27.07
2018-02-20T00:52:27.253Z,25.93
2018-02-20T00:54:56.338Z,26.87
2018-02-20T00:57:26.249Z,28.27
2018-02-20T00:59:56.128Z,27.60
2018-02-20T01:02:25.450Z,29.07
2018-02-20T01:04:55.306Z,26.90
2018-02-20T01:07:24.413Z,28.50
2018-02-20T01:09:53.506Z,27.63
2018-02-20T01:12:22.640Z,25.47
2018-02-20T01:14:51.848Z,25.27
2018-02-20T01:17:20.916Z,24.43
2018-02-20T01:19:50.052Z,27.10
2018-02-20T01:22:19.903Z,27.20
2018-02-20T01:24:49.021Z,26.47
2018-02-20T01:27:18.111Z,24.50
2018-02-20T01:29:48.013Z,27.40
2018-02-20T01:32:17.106Z,28.57
2018-02-20T01:34:46.230Z,27.50
2018-02-20T01:37:15.313Z,31.37
2018-02-20T01:39:44.430Z,24.90
2018-02-20T01:42:13.527Z,28.37
2018-02-20T01:44:42.665Z,26.47
2018-02-20T01:47:11.764Z,26.93
2018-02-20T01:49:40.860Z,28.37
2018-02-20T01:52:09.970Z,26.53
2018-02-20T01:54:39.078Z,25.20
2018-02-20T01:57:08.196Z,26.80
2018-02-20T01:59:37.286Z,27.47
2018-02-20T02:02:06.403Z,26.80
2018-02-20T02:04:36.269Z,27.33
2018-02-20T02:07:05.417Z,26.80
2018-02-20T02:09:34.506Z,26.30
2018-02-20T02:12:03.607Z,26.57
2018-02-20T02:14:32.712Z,28.30
2018-02-20T02:17:02.569Z,26.60
2018-02-20T02:19:31.778Z,26.60
2018-02-20T02:22:00.915Z,27.57
2018-02-20T02:24:30.774Z,27.43
2018-02-20T02:26:59.929Z,25.70
2018-02-20T02:29:29.035Z,26.83
2018-02-20T02:31:58.895Z,26.07
2018-02-20T02:34:28.024Z,25.93
2018-02-20T02:36:57.131Z,25.50
2018-02-20T02:39:27.001Z,26.00
2018-02-20T02:41:56.088Z,27.77
2018-02-20T02:44:25.214Z,26.60
2018-02-20T02:46:54.304Z,24.30
2018-02-20T02:49:23.423Z,26.57
2018-02-20T02:51:52.513Z,27.70
2018-02-20T02:54:21.633Z,27.03
2018-02-20T02:56:51.490Z,28.17
2018-02-20T02:59:20.599Z,25.97
2018-02-20T03:01:49.687Z,24.33
2018-02-20T03:04:18.795Z,25.80
2018-02-20T03:06:47.889Z,27.10
2018-02-20T03:09:16.993Z,25.80
2018-02-20T03:11:46.090Z,25.80
2018-02-20T03:14:15.216Z,28.23
2018-02-20T03:16:45.062Z,27.70
2018-02-20T03:19:14.178Z,30.73
2018-02-20T03:21:43.261Z,35.23
2018-02-20T03:24:12.346Z,31.07
2018-02-20T03:26:41.469Z,26.87
2018-02-20T03:29:10.573Z,27.80
2018-02-20T03:31:39.695Z,26.27
2018-02-20T03:34:09.567Z,28.00
2018-02-20T03:36:38.663Z,26.20
2018-02-20T03:39:07.799Z,28.07
2018-02-20T03:41:36.887Z,27.17
2018-02-20T03:44:06.768Z,30.00
2018-02-20T03:46:37.286Z,30.63
2018-02-20T03:49:06.421Z,29.90
2018-02-20T03:51:35.526Z,27.67
2018-02-20T03:54:04.597Z,28.17
2018-02-20T03:56:33.726Z,30.60
2018-02-20T03:59:03.577Z,29.00
2018-02-20T04:01:32.698Z,28.50
2018-02-20T04:04:01.772Z,28.00
2018-02-20T04:06:30.883Z,28.40
2018-02-20T04:08:59.986Z,29.77
2018-02-20T04:11:29.858Z,27.67
2018-02-20T04:13:59.710Z,28.80
2018-02-20T04:16:28.827Z,28.13
2018-02-20T04:18:57.921Z,28.57
2018-02-20T04:21:27.026Z,28.60
2018-02-20T04:23:56.142Z,27.87
2018-02-20T04:26:26.007Z,28.57
2018-02-20T04:28:55.118Z,30.00
2018-02-20T04:31:24.240Z,27.23
2018-02-20T04:33:53.349Z,30.40
2018-02-20T04:36:23.190Z,29.40
2018-02-20T04:38:52.305Z,27.27
2018-02-20T04:41:22.934Z,28.57
2018-02-20T04:43:52.043Z,28.00
2018-02-20T04:46:21.130Z,30.00
2018-02-20T04:48:50.221Z,29.20
2018-02-20T04:51:19.354Z,29.20
2018-02-20T04:53:48.465Z,27.57
2018-02-20T04:56:17.567Z,29.17
2018-02-20T04:58:47.422Z,29.67
2018-02-20T05:01:16.538Z,32.20
2018-02-20T05:03:45.639Z,30.17
2018-02-20T05:06:14.774Z,31.50
2018-02-20T05:08:43.861Z,32.17
2018-02-20T05:11:12.986Z,31.83
2018-02-20T05:13:42.847Z,27.33
2018-02-20T05:16:11.965Z,30.90
2018-02-20T05:18:41.818Z,27.07
2018-02-20T05:21:10.902Z,35.73
2018-02-20T05:23:41.074Z,29.87
2018-02-20T05:26:10.184Z,26.37
2018-02-20T05:28:40.059Z,34.10
2018-02-20T05:31:09.182Z,31.17
2018-02-20T05:33:38.288Z,29.80
2018-02-20T05:36:08.169Z,29.20
2018-02-20T05:38:37.277Z,27.70
2018-02-20T05:41:06.370Z,28.27
2018-02-20T05:43:35.500Z,29.10
2018-02-20T05:46:05.382Z,27.83
2018-02-20T05:48:34.490Z,28.93
2018-02-20T05:51:03.637Z,27.87
2018-02-20T05:53:32.730Z,29.50
2018-02-20T05:56:02.779Z,28.33
2018-02-20T05:58:31.890Z,30.83
2018-02-20T06:01:01.112Z,28.70
2018-02-20T06:03:30.224Z,28.77
2018-02-20T06:06:00.095Z,29.00
2018-02-20T06:08:29.214Z,28.80
2018-02-20T06:10:59.074Z,28.90
2018-02-20T06:13:28.202Z,28.53
2018-02-20T06:15:57.307Z,30.33
2018-02-20T06:18:26.422Z,34.43
2018-02-20T06:20:56.285Z,30.87
2018-02-20T06:23:26.167Z,29.30
2018-02-20T06:25:56.029Z,28.63
2018-02-20T06:28:25.145Z,27.50
2018-02-20T06:30:54.256Z,29.97
2018-02-20T06:33:24.109Z,32.07
2018-02-20T06:35:53.226Z,28.40
2018-02-20T06:38:22.330Z,29.40
2018-02-20T06:40:51.432Z,29.77
2018-02-20T06:43:20.521Z,31.30
2018-02-20T06:45:49.642Z,30.17
2018-02-20T06:48:18.726Z,31.63
2018-02-20T06:50:47.841Z,30.03
2018-02-20T06:53:17.705Z,31.67
2018-02-20T06:55:46.807Z,30.20
2018-02-20T06:58:15.921Z,30.10
2018-02-20T07:00:45.049Z,29.80
2018-02-20T07:03:14.893Z,31.10
2018-02-20T07:05:44.003Z,29.77
2018-02-20T07:08:13.108Z,30.43
2018-02-20T07:10:42.214Z,30.10
2018-02-20T07:13:11.316Z,30.73
2018-02-20T07:15:40.419Z,29.67
2018-02-20T07:18:09.521Z,29.27
2018-02-20T07:20:38.611Z,27.20
2018-02-20T07:23:07.793Z,28.50
2018-02-20T07:25:36.830Z,26.80
2018-02-20T07:28:06.737Z,29.30
2018-02-20T07:30:36.590Z,31.03
2018-02-20T07:33:05.706Z,34.33
2018-02-20T07:35:34.813Z,32.37
2018-02-20T07:38:04.711Z,30.03
2018-02-20T07:40:33.803Z,32.20
2018-02-20T07:43:02.929Z,34.30
2018-02-20T07:45:32.033Z,32.53
2018-02-20T07:48:01.130Z,36.50
2018-02-20T07:50:30.997Z,33.67
2018-02-20T07:53:00.121Z,29.93
2018-02-20T07:55:29.209Z,31.60
2018-02-20T07:57:58.311Z,32.10
2018-02-20T08:00:27.473Z,29.00
2018-02-20T08:02:56.587Z,33.90
2018-02-20T08:05:25.721Z,33.43
2018-02-20T08:07:54.831Z,31.17
2018-02-20T08:10:24.757Z,30.20
2018-02-20T08:12:54.653Z,29.77
2018-02-20T08:15:23.790Z,28.30
2018-02-20T08:17:53.650Z,30.30
2018-02-20T08:20:22.753Z,28.33
2018-02-20T08:22:51.866Z,28.97
2018-02-20T08:25:21.735Z,25.63
2018-02-20T08:27:50.841Z,27.60
2018-02-20T08:30:19.957Z,26.53
2018-02-20T08:32:49.068Z,28.53
2018-02-20T08:35:18.930Z,26.03
2018-02-20T08:37:48.081Z,25.17
2018-02-20T08:40:17.922Z,25.80
2018-02-20T08:42:47.070Z,30.53
2018-02-20T08:45:16.170Z,27.17
2018-02-20T08:47:45.300Z,29.60
2018-02-20T08:50:15.154Z,28.67
2018-02-20T08:52:44.284Z,28.30
2018-02-20T08:55:13.370Z,26.47
2018-02-20T08:57:42.506Z,25.50
2018-02-20T09:00:12.417Z,26.90
2018-02-20T09:02:41.477Z,26.20
2018-02-20T09:05:10.588Z,25.27
2018-02-20T09:07:40.456Z,25.40
2018-02-20T09:10:10.350Z,26.93
2018-02-20T09:12:39.454Z,24.80
2018-02-20T09:15:08.588Z,28.10
2018-02-20T09:17:37.687Z,26.43
2018-02-20T09:20:06.794Z,26.73
2018-02-20T09:22:35.890Z,27.70
2018-02-20T09:25:05.006Z,26.27
2018-02-20T09:27:34.858Z,26.63
2018-02-20T09:30:03.970Z,28.30
2018-02-20T09:32:33.063Z,27.30
2018-02-20T09:35:02.962Z,25.50
2018-02-20T09:37:32.050Z,28.17
2018-02-20T09:40:01.175Z,27.73
2018-02-20T09:42:30.283Z,29.63
2018-02-20T09:44:59.398Z,27.47
2018-02-20T09:47:29.252Z,28.50
2018-02-20T09:49:58.367Z,29.67
2018-02-20T09:52:27.463Z,27.93
2018-02-20T09:54:56.594Z,27.83
2018-02-20T09:57:25.675Z,26.50
2018-02-20T09:59:54.804Z,25.10
2018-02-20T10:02:24.712Z,26.50
2018-02-20T10:04:53.802Z,25.87
2018-02-20T10:07:23.662Z,27.63
2018-02-20T10:09:52.782Z,27.67
2018-02-20T10:12:21.875Z,26.93
2018-02-20T10:14:50.981Z,29.47
2018-02-20T10:17:20.064Z,28.70
2018-02-20T10:19:49.175Z,25.93
2018-02-20T10:22:18.280Z,26.63
2018-02-20T10:24:47.396Z,25.60
2018-02-20T10:27:17.265Z,23.60
2018-02-20T10:29:46.380Z,25.10
2018-02-20T10:32:15.486Z,22.40
2018-02-20T10:34:44.606Z,22.77
2018-02-20T10:37:14.493Z,25.13
2018-02-20T10:39:43.603Z,23.90
2018-02-20T10:42:13.479Z,22.33
2018-02-20T10:44:42.859Z,23.87
2018-02-20T10:47:11.995Z,27.40
2018-02-20T10:49:41.102Z,26.10
2018-02-20T10:52:10.208Z,27.87
2018-02-20T10:54:39.310Z,27.80
2018-02-20T10:57:09.178Z,23.40
2018-02-20T10:59:38.278Z,22.50
2018-02-20T11:02:07.409Z,24.33
2018-02-20T11:04:36.520Z,25.27
2018-02-20T11:07:06.386Z,22.80
2018-02-20T11:09:35.509Z,22.70
2018-02-20T11:12:04.633Z,18.50
2018-02-20T11:14:33.729Z,22.37
2018-02-20T11:17:02.851Z,21.90
2018-02-20T11:19:31.999Z,23.63
2018-02-20T11:22:01.955Z,24.10
2018-02-20T11:24:31.015Z,25.63
2018-02-20T11:27:00.894Z,25.27
2018-02-20T11:29:29.993Z,25.40
2018-02-20T11:31:59.123Z,24.10
2018-02-20T11:34:28.219Z,25.00
2018-02-20T11:36:57.333Z,24.80
2018-02-20T11:39:27.194Z,24.87
2018-02-20T11:41:56.318Z,23.10
2018-02-20T11:44:26.210Z,22.00
2018-02-20T11:46:56.104Z,22.90
2018-02-20T11:49:25.225Z,22.70
2018-02-20T11:51:54.326Z,23.33
2018-02-20T11:54:23.458Z,23.80
2018-02-20T11:56:53.330Z,23.23
2018-02-20T11:59:23.220Z,25.03
2018-02-20T12:01:52.313Z,22.90
2018-02-20T12:04:22.191Z,21.90
2018-02-20T12:06:51.319Z,21.33
2018-02-20T12:09:20.411Z,23.40
2018-02-20T12:11:49.552Z,24.10
2018-02-20T12:14:18.675Z,25.10
2018-02-20T12:16:48.542Z,23.30
2018-02-20T12:19:18.443Z,25.10
2018-02-20T12:21:49.026Z,23.00
2018-02-20T12:24:18.132Z,25.57
2018-02-20T12:26:47.249Z,24.87
2018-02-20T12:29:16.374Z,23.30
2018-02-20T12:31:45.503Z,25.90
2018-02-20T12:34:15.354Z,27.00
2018-02-20T12:36:44.460Z,26.80
2018-02-20T12:39:13.572Z,26.27
2018-02-20T12:41:42.659Z,23.77
2018-02-20T12:44:11.778Z,23.70
2018-02-20T12:46:41.678Z,25.70
2018-02-20T12:49:10.774Z,25.20
2018-02-20T12:51:39.884Z,25.67
2018-02-20T12:54:09.798Z,24.23
2018-02-20T12:56:39.801Z,24.33
2018-02-20T12:59:08.820Z,25.47
2018-02-20T13:01:38.672Z,24.63
2018-02-20T13:04:07.768Z,27.80
2018-02-20T13:06:36.922Z,29.30
2018-02-20T13:09:06.800Z,26.90
2018-02-20T13:11:36.678Z,27.37
2018-02-20T13:14:05.794Z,27.60
2018-02-20T13:16:34.903Z,27.80
2018-02-20T13:19:04.004Z,28.27
2018-02-20T13:21:33.098Z,26.50
2018-02-20T13:24:02.199Z,24.67
2018-02-20T13:26:31.318Z,24.00
2018-02-20T13:29:01.214Z,26.43
2018-02-20T13:31:30.318Z,24.83
2018-02-20T13:33:59.431Z,26.57
2018-02-20T13:36:28.531Z,28.73
2018-02-20T13:38:58.424Z,28.93
2018-02-20T13:41:27.551Z,29.90
2018-02-20T13:43:56.658Z,28.70
2018-02-20T13:46:25.793Z,29.23
2018-02-20T13:48:54.902Z,30.20
2018-02-20T13:51:24.038Z,29.17
2018-02-20T13:53:53.144Z,28.53
2018-02-20T13:56:22.230Z,29.93
2018-02-20T13:58:51.375Z,30.87
2018-02-20T14:01:20.510Z,32.87
2018-02-20T14:03:50.402Z,30.90
2018-02-20T14:06:19.516Z,31.33
2018-02-20T14:08:49.397Z,28.13
2018-02-20T14:11:18.502Z,28.10
2018-02-20T14:13:47.606Z,29.20
2018-02-20T14:16:16.704Z,30.37
2018-02-20T14:18:45.826Z,29.90
2018-02-20T14:21:15.701Z,26.50
2018-02-20T14:23:44.818Z,26.83
2018-02-20T14:26:14.703Z,26.90
2018-02-20T14:28:44.612Z,26.57
2018-02-20T14:31:13.718Z,25.00
2018-02-20T14:33:42.848Z,24.40
2018-02-20T14:36:11.948Z,25.40
2018-02-20T14:38:42.656Z,25.23
2018-02-20T14:41:11.751Z,27.00
2018-02-20T14:43:40.900Z,25.77
2018-02-20T14:46:10.007Z,24.90
2018-02-20T14:48:39.112Z,24.27
2018-02-20T14:51:08.234Z,25.03
2018-02-20T14:53:37.352Z,27.23
2018-02-20T14:56:06.454Z,25.30
2018-02-20T14:58:36.347Z,23.30
2018-02-20T15:01:05.469Z,23.60
2018-02-20T15:03:35.333Z,24.00
2018-02-20T15:06:04.454Z,25.70
2018-02-20T15:08:33.542Z,24.43
2018-02-20T15:11:02.685Z,25.97
2018-02-20T15:13:31.782Z,25.40
2018-02-20T15:16:00.898Z,24.57
2018-02-20T15:18:30.003Z,24.23
2018-02-20T15:20:59.111Z,24.40
2018-02-20T15:23:28.236Z,24.63
2018-02-20T15:25:57.334Z,24.40
2018-02-20T15:28:26.478Z,25.87
2018-02-20T15:30:55.571Z,24.13
2018-02-20T15:33:24.678Z,22.10
2018-02-20T15:35:53.784Z,22.37
2018-02-20T15:38:23.682Z,25.00
2018-02-20T15:40:52.817Z,23.60
2018-02-20T15:43:21.944Z,22.50
2018-02-20T15:45:51.811Z,21.53
2018-02-20T15:48:20.937Z,21.90
2018-02-20T15:50:50.814Z,21.90
2018-02-20T15:53:20.728Z,22.67
2018-02-20T15:55:50.579Z,21.73
2018-02-20T15:58:19.750Z,22.63
2018-02-20T16:00:48.827Z,20.50
2018-02-20T16:03:17.940Z,23.60
2018-02-20T16:05:47.074Z,24.23
2018-02-20T16:08:16.977Z,23.00
2018-02-20T16:10:46.867Z,24.07
2018-02-20T16:13:16.000Z,23.43
2018-02-20T16:15:51.321Z,22.87
2018-02-20T16:18:20.475Z,22.90
2018-02-20T16:20:49.583Z,24.10
2018-02-20T16:23:18.703Z,22.10
2018-02-20T16:25:47.841Z,24.13
2018-02-20T16:28:17.704Z,22.80
2018-02-20T16:30:46.822Z,24.57
2018-02-20T16:33:16.044Z,25.10
2018-02-20T16:35:45.963Z,23.87
2018-02-20T16:38:15.849Z,24.17
2018-02-20T16:40:44.972Z,23.33
2018-02-20T16:43:14.824Z,23.63
2018-02-20T16:45:43.939Z,27.90
2018-02-20T16:48:13.075Z,30.50
2018-02-20T16:50:42.213Z,26.57
2018-02-20T16:53:11.363Z,28.83
2018-02-20T16:55:41.246Z,29.27
2018-02-20T16:58:10.362Z,30.67
2018-02-20T17:00:39.492Z,31.07
2018-02-20T17:03:08.603Z,28.40
2018-02-20T17:05:37.756Z,29.43
2018-02-20T17:08:06.859Z,29.77
2018-02-20T17:10:36.727Z,30.50
2018-02-20T17:13:05.848Z,31.93
2018-02-20T17:15:35.024Z,30.90
2018-02-20T17:18:04.225Z,30.73
2018-02-20T17:20:33.304Z,29.60
2018-02-20T17:23:02.490Z,32.53
2018-02-20T17:25:31.619Z,30.23
2018-02-20T17:28:00.750Z,32.10
2018-02-20T17:30:29.840Z,34.30
2018-02-20T17:32:58.994Z,31.10
2018-02-20T17:35:28.097Z,35.43
2018-02-20T17:38:00.703Z,29.93
2018-02-20T17:40:27.109Z,30.90
2018-02-20T17:42:56.237Z,34.10
2018-02-20T17:45:25.343Z,32.00
2018-02-20T17:47:55.239Z,30.73
2018-02-20T17:50:24.940Z,30.50
2018-02-20T17:52:54.073Z,30.90
2018-02-20T17:55:23.959Z,30.13
2018-02-20T17:57:53.091Z,29.13
2018-02-20T18:00:23.080Z,28.57
2018-02-20T18:02:52.195Z,30.67
2018-02-20T18:05:22.079Z,28.70
2018-02-20T18:07:51.215Z,30.60
2018-02-20T18:10:21.108Z,31.50
2018-02-20T18:12:50.994Z,32.60
2018-02-20T18:15:20.104Z,33.30
2018-02-20T18:17:49.203Z,30.70
2018-02-20T18:20:18.355Z,31.30
2018-02-20T18:22:47.525Z,31.20
2018-02-20T18:25:16.621Z,29.73
2018-02-20T18:27:45.750Z,32.43
2018-02-20T18:30:14.876Z,31.27
2018-02-20T18:32:44.002Z,31.70
2018-02-20T18:35:13.936Z,34.70
2018-02-20T18:37:43.051Z,31.50
2018-02-20T18:40:12.173Z,30.90
2018-02-20T18:42:41.300Z,33.97
2018-02-20T18:45:10.389Z,31.67
2018-02-20T18:47:39.509Z,33.17
2018-02-20T18:50:09.376Z,34.10
2018-02-20T18:52:38.535Z,31.27
2018-02-20T18:55:07.637Z,33.80
2018-02-20T18:57:36.780Z,32.97
2018-02-20T19:00:05.875Z,30.73
2018-02-20T19:02:35.011Z,31.17
2018-02-20T19:05:04.143Z,30.70
2018-02-20T19:07:33.258Z,34.40
2018-02-20T19:10:02.366Z,33.27
2018-02-20T19:12:31.530Z,33.30
2018-02-20T19:15:00.654Z,33.70
2018-02-20T19:17:29.775Z,30.73
2018-02-20T19:19:59.661Z,34.50
2018-02-20T19:22:28.790Z,33.83
2018-02-20T19:24:58.661Z,32.90
2018-02-20T19:27:27.774Z,34.13
2018-02-20T19:29:56.887Z,37.00
2018-02-20T19:32:26.644Z,33.83
2018-02-20T19:34:55.766Z,34.17
2018-02-20T19:37:24.908Z,36.73
2018-02-20T19:39:54.763Z,35.90
2018-02-20T19:42:24.669Z,34.90
2018-02-20T19:44:53.792Z,34.37
2018-02-20T19:47:22.935Z,32.97
2018-02-20T19:49:52.815Z,34.83
2018-02-20T19:52:21.939Z,31.50
2018-02-20T19:54:51.075Z,33.50
2018-02-20T19:57:20.985Z,33.43
2018-02-20T19:59:50.103Z,34.17
2018-02-20T20:02:19.208Z,35.13
2018-02-20T20:04:48.348Z,33.57
2018-02-20T20:07:17.464Z,32.93
2018-02-20T20:09:46.558Z,36.10
2018-02-20T20:12:15.694Z,36.37
2018-02-20T20:14:44.822Z,35.80
2018-02-20T20:17:13.969Z,36.20
2018-02-20T20:19:43.086Z,36.80
2018-02-20T20:22:12.295Z,38.53
2018-02-20T20:24:41.374Z,34.30
2018-02-20T20:27:10.496Z,35.90
2018-02-20T20:29:40.396Z,36.00
2018-02-20T20:32:09.528Z,34.60
2018-02-20T20:34:39.407Z,33.97
2018-02-20T20:37:08.545Z,35.17
2018-02-20T20:39:37.703Z,34.43
2018-02-20T20:42:06.819Z,33.03
2018-02-20T20:44:36.728Z,34.20
2018-02-20T20:47:06.633Z,37.27
2018-02-20T20:49:35.752Z,36.83
2018-02-20T20:52:05.652Z,35.23
2018-02-20T20:54:35.531Z,36.17
2018-02-20T20:57:04.639Z,35.87
2018-02-20T20:59:33.782Z,36.97
2018-02-20T21:02:02.955Z,32.27
2018-02-20T21:04:32.090Z,32.10
2018-02-20T21:07:01.230Z,33.30
2018-02-20T21:09:30.654Z,34.27
2018-02-20T21:12:01.090Z,34.07
2018-02-20T21:14:30.991Z,35.23
2018-02-20T21:17:00.149Z,33.93
2018-02-20T21:19:29.276Z,36.17
2018-02-20T21:21:58.397Z,37.23
2018-02-20T21:24:28.288Z,34.60
2018-02-20T21:26:57.447Z,36.50
2018-02-20T21:29:26.544Z,35.43
2018-02-20T21:31:55.671Z,35.40
2018-02-20T21:34:24.801Z,33.13
2018-02-20T21:36:53.946Z,35.03
2018-02-20T21:39:23.798Z,32.70
2018-02-20T21:41:52.918Z,33.27
2018-02-20T21:44:22.008Z,34.00
2018-02-20T21:46:51.913Z,36.43
2018-02-20T21:49:21.787Z,36.00
2018-02-20T21:51:50.923Z,36.47
2018-02-20T21:54:20.806Z,35.90
2018-02-20T21:56:49.927Z,35.03
2018-02-20T21:59:19.811Z,34.63
2018-02-20T22:01:48.953Z,35.63
2018-02-20T22:04:18.852Z,35.73
2018-02-20T22:06:47.963Z,36.07
2018-02-20T22:09:17.095Z,41.27
2018-02-20T22:11:46.216Z,40.67
2018-02-20T22:14:15.344Z,44.07
2018-02-20T22:16:45.219Z,38.27
2018-02-20T22:19:14.349Z,38.83
2018-02-20T22:21:44.195Z,40.40
2018-02-20T22:24:13.321Z,38.63
2018-02-20T22:26:42.415Z,36.33
2018-02-20T22:29:11.540Z,36.70
2018-02-20T22:31:40.638Z,37.10
2018-02-20T22:34:09.753Z,37.33
2018-02-20T22:36:38.854Z,37.67
2018-02-20T22:39:07.973Z,39.57
2018-02-20T22:41:37.092Z,38.43
2018-02-20T22:44:06.990Z,37.37
2018-02-20T22:46:36.094Z,38.20
2018-02-20T22:49:05.210Z,37.50
2018-02-20T22:51:34.337Z,36.67
2018-02-20T22:54:04.202Z,39.73
2018-02-20T22:56:33.309Z,38.30
2018-02-20T22:59:02.434Z,36.00
2018-02-20T23:01:31.564Z,37.33
2018-02-20T23:04:00.676Z,37.30
2018-02-20T23:06:29.799Z,38.80
2018-02-20T23:08:58.900Z,35.93
2018-02-20T23:11:45.735Z,36.77
2018-02-20T23:14:15.616Z,38.17
2018-02-20T23:16:44.758Z,38.90
2018-02-20T23:19:14.642Z,39.10
2018-02-20T23:21:44.677Z,35.07
2018-02-20T23:24:13.796Z,36.47
2018-02-20T23:26:43.683Z,35.33
2018-02-20T23:29:12.790Z,37.70
2018-02-20T23:31:41.935Z,37.00
2018-02-20T23:34:11.035Z,37.57
2018-02-20T23:36:40.186Z,37.60
2018-02-20T23:39:10.056Z,35.87
2018-02-20T23:41:39.922Z,35.07
2018-02-20T23:44:09.066Z,35.00
2018-02-20T23:46:38.167Z,37.07
2018-02-20T23:49:08.091Z,36.20
2018-02-20T23:51:37.198Z,37.77
2018-02-20T23:54:06.315Z,36.43
2018-02-20T23:56:35.422Z,36.30
2018-02-20T23:59:04.551Z,37.27
